Meteo Giornale » Osservazioni meteo Stati Uniti (USA) » Dalhart
ore: 10:53 - Osservazioni Meteo Dalhart
Lat. 36° 1' N Lon. 102° 32' W Alt. 1216 metri s.l.m.
29 °C
Sereno
Temp. 24 Ore
19 °C
38 °C
Sud-Est
9.3 Km/h
Dew point 14 °C
Umidità 39 %
Visibilità 10 Km
Il sole sorge alle ore 07:21
Il sole tramonta alle ore 20:19
| Data e Ora | Cielo e Fenomeni | T °C | DP °C | Um. % | Pres. hPa | Vis. km | Vento km/h | |
|---|---|---|---|---|---|---|---|---|
| Oggi h: 10:53 | Sereno | 29 | 14 | 39 | 1020 | 10 | SE 9.3 | |
| Oggi h: 09:53 | Sereno | 26 | 14 | 47 | 1019 | 10 | N/NO 11.1 | |
| Oggi h: 08:53 | Sereno | 22 | 13 | 56 | 1019 | 10 | N/NO 18.5 | |
| Oggi h: 07:53 | Sereno | 19 | 13 | 68 | 1019 | 10 | N/NO 14.8 | |
| Oggi h: 06:53 | Sereno | 21 | 12 | 56 | 1019 | 10 | N 13 | |
| Oggi h: 05:53 | Sereno | 21 | 12 | 56 | 1019 | 10 | N 9.3 | |
| Oggi h: 04:53 | Sereno | 23 | 12 | 49 | 1019 | 10 | N/NO 14.8 | |
| Oggi h: 03:53 | Sereno | 24 | 11 | 43 | 1018 | 10 | O/NO 16.7 | |
| Oggi h: 02:53 | Sereno | 23 | 10 | 43 | 1017 | 10 | S 14.8 | |
| Oggi h: 01:53 | Sereno | 26 | 9 | 34 | 1017 | 10 | S 24 | |
| Oggi h: 00:53 | Sereno | 26 | 10 | 36 | 1017 | 10 | S/SO 22.2 | |
| Ieri h: 23:53 | Sereno | 28 | 10 | 32 | 1016 | 10 | S 27.8 | |
| Ieri h: 22:53 | Sereno | 29 | 9 | 28 | 1015 | 10 | S 27.8 | |
| Ieri h: 21:53 | Sereno | 31 | 10 | 27 | 1015 | 10 | S 29.6 | |
| Ieri h: 20:53 | Sereno | 33 | 10 | 24 | 1014 | 10 | S 31.5 | |
| Ieri h: 19:53 | Sereno | 35 | 7 | 17 | 1013 | 10 | S/SO 14.8 | |
| Ieri h: 18:53 | Sereno | 38 | 6 | 14 | 1013 | 10 | S/SO 14.8 | |
| Ieri h: 18:40 | Sereno | 38 | 5 | 13 | 1013 | 10 | S/SO 20.3 | |
| Ieri h: 17:53 | Sereno | 38 | 7 | 15 | 1013 | 10 | S 18.5 | |
| Ieri h: 16:53 | Poco Nuvoloso | 37 | 8 | 17 | 1014 | 10 | SO 18.5 | |
| Ieri h: 15:53 | Poco Nuvoloso | 37 | 8 | 17 | 1015 | 10 | SO 24 | |
| Ieri h: 14:53 | Sereno | 38 | 9 | 17 | 1015 | 10 | O 9.3 | |
| Ieri h: 13:53 | Sereno | 38 | 9 | 17 | 1016 | 10 | O 24 | |
| Ieri h: 12:53 | Sereno | 37 | 10 | 19 | 1017 | 10 | SO 20.3 | |
| Ieri h: 11:53 | Sereno | 35 | 11 | 23 | 1017 | 10 | O/SO 24 | |



